Date,TemperatureHighF,TemperatureAvgF,TemperatureLowF,DewpointHighF,DewpointAvgF,DewpointLowF,HumidityHigh,HumidityAvg,HumidityLow,PressureMaxIn,PressureMinIn,WindSpeedMaxMPH,WindSpeedAvgMPH,GustSpeedMaxMPH,PrecipitationSumIn
2014-2-1,53.9,38.5,27.7,34.1,28.5,23.9,89,70,41,30.18,29.90,15,1,15,0.00
2014-2-2,42.0,36.9,31.5,40.4,34.3,29.6,94,90,77,30.15,29.90,8,0,8,0.11
2014-2-3,33.7,29.1,15.5,30.6,26.5,11.9,95,90,81,30.35,30.05,4,0,4,0.11
2014-2-4,39.9,26.1,13.2,29.5,21.9,10.8,94,85,64,30.42,30.03,11,1,16,0.03
2014-2-5,40.5,31.3,22.4,39.4,28.8,18.8,96,90,82,30.22,29.63,22,2,22,0.05
2014-2-6,27.6,22.7,18.3,19.2,16.7,14.4,89,78,58,30.39,30.22,13,1,13,0.02
2014-2-7,27.7,19.2,4.7,18.6,12.5,1.2,86,75,57,30.39,30.29,19,-13,19,0.02
2014-2-8,27.2,12.9,-0.2,16.3,6.8,-3.6,90,78,49,30.39,30.23,4,0,6,0.00
2014-2-9,33.6,23.4,15.6,31.3,20.8,13.2,92,89,84,30.23,29.94,10,0,10,0.00
2014-2-10,25.2,15.7,4.9,18.5,10.9,1.5,89,81,69,30.37,30.16,9,-10,12,0.00
2014-2-11,27.7,11.8,-3.6,16.2,4.9,-7.8,92,75,49,30.52,30.36,10,-10,10,0.00
2014-2-12,30.4,10.9,-12.9,16.8,1.5,-17.1,89,68,43,30.52,30.16,10,1,19,0.00
2014-2-13,30.6,26.9,23.3,27.8,23.8,16.9,92,88,76,30.16,29.57,10,1,10,0.00
2014-2-14,38.4,31.0,23.5,27.7,25.1,21.0,92,79,61,29.72,29.52,21,2,21,0.00
2014-2-15,28.7,25.5,8.5,26.0,21.2,3.5,92,84,64,30.06,29.63,13,-8,13,0.00
2014-2-16,29.0,18.3,2.1,24.3,14.4,-1.9,94,85,71,30.32,30.00,9,-14,9,0.00
2014-2-17,33.7,12.6,-4.1,16.0,6.6,-8.4,92,78,41,30.45,30.32,14,-39,14,0.00
2014-2-18,46.6,36.6,24.8,32.9,29.2,22.3,91,76,53,30.05,29.94,19,1,19,0.00
2014-2-19,50.3,35.9,19.8,46.3,31.1,17.6,97,84,58,30.14,29.71,19,1,19,0.00
2014-2-20,54.0,38.0,18.7,42.9,29.6,16.5,100,74,45,30.16,29.74,27,2,27,0.00
2014-2-21,56.4,45.5,36.4,47.7,35.5,25.6,95,69,51,29.95,29.59,26,2,26,0.00
2014-2-22,53.5,40.2,28.3,30.2,25.0,19.5,92,59,29,30.03,29.95,23,2,23,0.00
2014-2-23,47.0,34.5,25.5,36.1,30.0,23.5,95,84,60,30.05,29.94,6,0,9,0.00
2014-2-24,33.2,27.0,20.5,30.6,16.7,9.9,92,66,43,30.15,29.99,19,1,19,0.00
2014-2-25,27.6,24.4,21.1,21.5,16.5,12.6,81,72,63,30.12,29.98,14,1,14,0.00
2014-2-26,24.7,18.8,4.3,19.8,10.6,0.5,87,71,46,30.06,29.81,16,-10,16,0.00
2014-2-27,25.7,15.1,2.7,16.3,6.1,-3.4,90,68,48,30.20,29.69,29,-19,29,0.00
2014-2-28,29.6,13.2,-5.2,9.6,-0.2,-9.0,86,59,27,30.41,30.20,15,0,15,0.00